sensor_id;sensor_type;location;lat;lon;timestamp;P1;durP1;ratioP1;P2;durP2;ratioP2
11016;SDS011;54687;50.800;6.772;2023-05-16T00:01:02;9.48;;;5.90;;
11016;SDS011;54687;50.800;6.772;2023-05-16T00:03:38;8.43;;;5.40;;
11016;SDS011;54687;50.800;6.772;2023-05-16T00:06:06;7.22;;;5.50;;
11016;SDS011;54687;50.800;6.772;2023-05-16T00:08:37;6.22;;;5.57;;
11016;SDS011;54687;50.800;6.772;2023-05-16T00:11:03;6.97;;;5.63;;
11016;SDS011;54687;50.800;6.772;2023-05-16T00:13:30;5.68;;;4.93;;
11016;SDS011;54687;50.800;6.772;2023-05-16T00:15:58;6.75;;;5.45;;
11016;SDS011;54687;50.800;6.772;2023-05-16T00:18:26;6.65;;;4.55;;
11016;SDS011;54687;50.800;6.772;2023-05-16T00:20:53;6.10;;;4.82;;
11016;SDS011;54687;50.800;6.772;2023-05-16T00:23:20;7.22;;;5.03;;
11016;SDS011;54687;50.800;6.772;2023-05-16T00:25:46;5.07;;;4.57;;
11016;SDS011;54687;50.800;6.772;2023-05-16T00:28:16;6.03;;;4.40;;
11016;SDS011;54687;50.800;6.772;2023-05-16T00:30:44;5.32;;;4.60;;
11016;SDS011;54687;50.800;6.772;2023-05-16T00:33:15;6.85;;;4.32;;
11016;SDS011;54687;50.800;6.772;2023-05-16T00:35:41;5.00;;;4.50;;
11016;SDS011;54687;50.800;6.772;2023-05-16T00:38:08;5.88;;;3.75;;
11016;SDS011;54687;50.800;6.772;2023-05-16T00:40:35;3.72;;;3.40;;
11016;SDS011;54687;50.800;6.772;2023-05-16T00:43:01;4.57;;;3.97;;
11016;SDS011;54687;50.800;6.772;2023-05-16T00:45:31;5.15;;;4.07;;
11016;SDS011;54687;50.800;6.772;2023-05-16T00:47:58;4.40;;;4.00;;
11016;SDS011;54687;50.800;6.772;2023-05-16T00:50:26;4.53;;;3.90;;
11016;SDS011;54687;50.800;6.772;2023-05-16T00:52:52;4.90;;;4.10;;
11016;SDS011;54687;50.800;6.772;2023-05-16T00:55:19;5.47;;;3.53;;
11016;SDS011;54687;50.800;6.772;2023-05-16T00:57:46;3.70;;;3.40;;
11016;SDS011;54687;50.800;6.772;2023-05-16T01:00:13;4.60;;;4.20;;
11016;SDS011;54687;50.800;6.772;2023-05-16T01:03:00;3.65;;;3.35;;
11016;SDS011;54687;50.800;6.772;2023-05-16T01:05:29;4.80;;;3.97;;
11016;SDS011;54687;50.800;6.772;2023-05-16T01:07:56;4.10;;;3.47;;
11016;SDS011;54687;50.800;6.772;2023-05-16T01:10:29;3.83;;;3.30;;
11016;SDS011;54687;50.800;6.772;2023-05-16T01:13:05;5.47;;;3.17;;
11016;SDS011;54687;50.800;6.772;2023-05-16T01:15:38;5.30;;;4.10;;
11016;SDS011;54687;50.800;6.772;2023-05-16T01:18:15;5.13;;;4.63;;
11016;SDS011;54687;50.800;6.772;2023-05-16T01:20:52;6.97;;;5.80;;
11016;SDS011;54687;50.800;6.772;2023-05-16T01:23:29;6.22;;;5.63;;
11016;SDS011;54687;50.800;6.772;2023-05-16T01:26:10;5.72;;;5.22;;
11016;SDS011;54687;50.800;6.772;2023-05-16T01:28:48;5.63;;;5.00;;
11016;SDS011;54687;50.800;6.772;2023-05-16T01:31:16;5.78;;;4.57;;
11016;SDS011;54687;50.800;6.772;2023-05-16T01:33:43;6.47;;;5.88;;
11016;SDS011;54687;50.800;6.772;2023-05-16T01:36:18;6.45;;;5.78;;
11016;SDS011;54687;50.800;6.772;2023-05-16T01:38:55;8.00;;;7.28;;
11016;SDS011;54687;50.800;6.772;2023-05-16T01:41:32;8.93;;;8.13;;
11016;SDS011;54687;50.800;6.772;2023-05-16T01:44:06;8.63;;;7.63;;
11016;SDS011;54687;50.800;6.772;2023-05-16T01:46:44;9.18;;;8.38;;
11016;SDS011;54687;50.800;6.772;2023-05-16T01:49:14;8.85;;;7.90;;
11016;SDS011;54687;50.800;6.772;2023-05-16T01:51:42;10.75;;;8.15;;
11016;SDS011;54687;50.800;6.772;2023-05-16T01:54:15;10.48;;;9.40;;
11016;SDS011;54687;50.800;6.772;2023-05-16T01:56:46;10.02;;;9.02;;
11016;SDS011;54687;50.800;6.772;2023-05-16T01:59:16;9.50;;;7.90;;
11016;SDS011;54687;50.800;6.772;2023-05-16T02:01:45;7.75;;;6.95;;
11016;SDS011;54687;50.800;6.772;2023-05-16T02:04:11;9.43;;;5.63;;
11016;SDS011;54687;50.800;6.772;2023-05-16T02:06:39;7.25;;;4.20;;
11016;SDS011;54687;50.800;6.772;2023-05-16T02:09:12;8.15;;;4.82;;
11016;SDS011;54687;50.800;6.772;2023-05-16T02:11:39;6.55;;;4.60;;
11016;SDS011;54687;50.800;6.772;2023-05-16T02:14:06;6.82;;;4.60;;
11016;SDS011;54687;50.800;6.772;2023-05-16T02:16:34;6.82;;;4.47;;
11016;SDS011;54687;50.800;6.772;2023-05-16T02:19:01;8.60;;;4.75;;
11016;SDS011;54687;50.800;6.772;2023-05-16T02:21:28;8.15;;;4.88;;
11016;SDS011;54687;50.800;6.772;2023-05-16T02:23:59;9.10;;;5.63;;
11016;SDS011;54687;50.800;6.772;2023-05-16T02:26:25;10.52;;;6.97;;
11016;SDS011;54687;50.800;6.772;2023-05-16T02:28:52;11.05;;;7.05;;
11016;SDS011;54687;50.800;6.772;2023-05-16T02:31:27;10.32;;;6.57;;
11016;SDS011;54687;50.800;6.772;2023-05-16T02:33:54;11.10;;;6.65;;
11016;SDS011;54687;50.800;6.772;2023-05-16T02:36:20;13.10;;;8.02;;
11016;SDS011;54687;50.800;6.772;2023-05-16T02:38:49;14.63;;;8.93;;
11016;SDS011;54687;50.800;6.772;2023-05-16T02:41:15;13.55;;;8.57;;
11016;SDS011;54687;50.800;6.772;2023-05-16T02:43:42;14.02;;;9.23;;
11016;SDS011;54687;50.800;6.772;2023-05-16T02:46:22;17.95;;;9.50;;
11016;SDS011;54687;50.800;6.772;2023-05-16T02:48:50;13.65;;;8.77;;
11016;SDS011;54687;50.800;6.772;2023-05-16T02:51:19;17.70;;;10.55;;
11016;SDS011;54687;50.800;6.772;2023-05-16T02:53:46;18.77;;;10.48;;
11016;SDS011;54687;50.800;6.772;2023-05-16T02:56:23;19.65;;;9.77;;
11016;SDS011;54687;50.800;6.772;2023-05-16T02:58:50;19.98;;;9.88;;
11016;SDS011;54687;50.800;6.772;2023-05-16T03:01:38;17.50;;;9.52;;
11016;SDS011;54687;50.800;6.772;2023-05-16T03:04:26;19.52;;;9.27;;
11016;SDS011;54687;50.800;6.772;2023-05-16T03:07:13;23.70;;;9.80;;
11016;SDS011;54687;50.800;6.772;2023-05-16T03:09:59;19.38;;;8.32;;
11016;SDS011;54687;50.800;6.772;2023-05-16T03:12:26;17.15;;;8.82;;
11016;SDS011;54687;50.800;6.772;2023-05-16T03:14:58;17.55;;;8.93;;
11016;SDS011;54687;50.800;6.772;2023-05-16T03:17:36;15.88;;;7.88;;
11016;SDS011;54687;50.800;6.772;2023-05-16T03:20:05;20.58;;;9.13;;
11016;SDS011;54687;50.800;6.772;2023-05-16T03:22:36;21.38;;;10.00;;
11016;SDS011;54687;50.800;6.772;2023-05-16T03:25:04;17.45;;;8.18;;
11016;SDS011;54687;50.800;6.772;2023-05-16T03:27:35;18.55;;;8.30;;
11016;SDS011;54687;50.800;6.772;2023-05-16T03:30:01;20.33;;;8.63;;
11016;SDS011;54687;50.800;6.772;2023-05-16T03:32:28;18.27;;;7.72;;
11016;SDS011;54687;50.800;6.772;2023-05-16T03:34:55;19.48;;;8.57;;
11016;SDS011;54687;50.800;6.772;2023-05-16T03:37:23;20.48;;;8.93;;
11016;SDS011;54687;50.800;6.772;2023-05-16T03:39:50;16.08;;;7.95;;
11016;SDS011;54687;50.800;6.772;2023-05-16T03:42:17;22.58;;;8.63;;
11016;SDS011;54687;50.800;6.772;2023-05-16T03:44:45;20.98;;;8.05;;
11016;SDS011;54687;50.800;6.772;2023-05-16T03:47:11;21.88;;;8.77;;
11016;SDS011;54687;50.800;6.772;2023-05-16T03:49:39;19.83;;;8.48;;
11016;SDS011;54687;50.800;6.772;2023-05-16T03:52:08;21.25;;;8.77;;
11016;SDS011;54687;50.800;6.772;2023-05-16T03:54:36;18.58;;;8.18;;
11016;SDS011;54687;50.800;6.772;2023-05-16T03:57:03;24.58;;;9.10;;
11016;SDS011;54687;50.800;6.772;2023-05-16T03:59:30;19.70;;;8.82;;
11016;SDS011;54687;50.800;6.772;2023-05-16T04:01:58;22.13;;;9.15;;
11016;SDS011;54687;50.800;6.772;2023-05-16T04:04:25;18.88;;;8.20;;
11016;SDS011;54687;50.800;6.772;2023-05-16T04:06:52;16.13;;;9.82;;
11016;SDS011;54687;50.800;6.772;2023-05-16T04:09:18;23.92;;;8.98;;
11016;SDS011;54687;50.800;6.772;2023-05-16T04:11:46;20.98;;;9.73;;
11016;SDS011;54687;50.800;6.772;2023-05-16T04:14:14;21.90;;;9.68;;
11016;SDS011;54687;50.800;6.772;2023-05-16T04:16:43;18.52;;;8.05;;
11016;SDS011;54687;50.800;6.772;2023-05-16T04:19:09;19.17;;;8.55;;
11016;SDS011;54687;50.800;6.772;2023-05-16T04:21:36;20.95;;;8.95;;
11016;SDS011;54687;50.800;6.772;2023-05-16T04:24:15;16.40;;;8.13;;
11016;SDS011;54687;50.800;6.772;2023-05-16T04:26:43;20.27;;;8.27;;
11016;SDS011;54687;50.800;6.772;2023-05-16T04:29:16;18.58;;;8.75;;
11016;SDS011;54687;50.800;6.772;2023-05-16T04:31:49;21.17;;;9.07;;
11016;SDS011;54687;50.800;6.772;2023-05-16T04:34:16;27.00;;;8.48;;
11016;SDS011;54687;50.800;6.772;2023-05-16T04:36:43;29.90;;;8.80;;
11016;SDS011;54687;50.800;6.772;2023-05-16T04:39:10;18.98;;;7.85;;
11016;SDS011;54687;50.800;6.772;2023-05-16T04:41:36;22.75;;;7.65;;
11016;SDS011;54687;50.800;6.772;2023-05-16T04:44:03;18.38;;;7.00;;
11016;SDS011;54687;50.800;6.772;2023-05-16T04:46:31;19.52;;;7.85;;
11016;SDS011;54687;50.800;6.772;2023-05-16T04:49:07;19.70;;;7.70;;
11016;SDS011;54687;50.800;6.772;2023-05-16T04:51:38;16.45;;;6.72;;
11016;SDS011;54687;50.800;6.772;2023-05-16T04:54:05;19.83;;;7.43;;
11016;SDS011;54687;50.800;6.772;2023-05-16T04:56:32;22.85;;;8.30;;
11016;SDS011;54687;50.800;6.772;2023-05-16T04:58:59;16.67;;;6.70;;
11016;SDS011;54687;50.800;6.772;2023-05-16T05:01:26;21.67;;;8.48;;
11016;SDS011;54687;50.800;6.772;2023-05-16T05:03:54;16.35;;;6.43;;
11016;SDS011;54687;50.800;6.772;2023-05-16T05:06:21;17.98;;;6.63;;
11016;SDS011;54687;50.800;6.772;2023-05-16T05:08:48;22.25;;;6.95;;
11016;SDS011;54687;50.800;6.772;2023-05-16T05:11:14;21.10;;;6.13;;
11016;SDS011;54687;50.800;6.772;2023-05-16T05:13:47;18.75;;;6.38;;
11016;SDS011;54687;50.800;6.772;2023-05-16T05:16:33;16.67;;;5.68;;
11016;SDS011;54687;50.800;6.772;2023-05-16T05:19:12;17.27;;;6.18;;
11016;SDS011;54687;50.800;6.772;2023-05-16T05:21:59;20.15;;;6.35;;
11016;SDS011;54687;50.800;6.772;2023-05-16T05:24:25;16.70;;;5.65;;
11016;SDS011;54687;50.800;6.772;2023-05-16T05:26:53;17.73;;;5.50;;
11016;SDS011;54687;50.800;6.772;2023-05-16T05:29:21;19.10;;;6.30;;
11016;SDS011;54687;50.800;6.772;2023-05-16T05:31:48;16.30;;;5.10;;
11016;SDS011;54687;50.800;6.772;2023-05-16T05:34:16;17.30;;;5.60;;
11016;SDS011;54687;50.800;6.772;2023-05-16T05:36:42;15.73;;;4.75;;
11016;SDS011;54687;50.800;6.772;2023-05-16T05:39:17;14.48;;;4.55;;
11016;SDS011;54687;50.800;6.772;2023-05-16T05:41:47;17.58;;;5.18;;
11016;SDS011;54687;50.800;6.772;2023-05-16T05:44:14;16.00;;;5.25;;
11016;SDS011;54687;50.800;6.772;2023-05-16T05:46:45;17.42;;;4.65;;
11016;SDS011;54687;50.800;6.772;2023-05-16T05:49:17;11.40;;;4.35;;
11016;SDS011;54687;50.800;6.772;2023-05-16T05:51:51;17.85;;;4.85;;
11016;SDS011;54687;50.800;6.772;2023-05-16T05:54:18;16.60;;;5.00;;
11016;SDS011;54687;50.800;6.772;2023-05-16T05:56:45;14.27;;;3.97;;
11016;SDS011;54687;50.800;6.772;2023-05-16T05:59:19;12.60;;;4.40;;
11016;SDS011;54687;50.800;6.772;2023-05-16T06:01:46;14.98;;;4.50;;
11016;SDS011;54687;50.800;6.772;2023-05-16T06:04:18;15.00;;;4.22;;
11016;SDS011;54687;50.800;6.772;2023-05-16T06:06:44;11.85;;;4.32;;
11016;SDS011;54687;50.800;6.772;2023-05-16T06:09:12;12.52;;;3.85;;
11016;SDS011;54687;50.800;6.772;2023-05-16T06:11:39;15.57;;;4.18;;
11016;SDS011;54687;50.800;6.772;2023-05-16T06:14:07;9.27;;;3.90;;
11016;SDS011;54687;50.800;6.772;2023-05-16T06:16:34;11.70;;;3.85;;
11016;SDS011;54687;50.800;6.772;2023-05-16T06:19:00;11.52;;;4.32;;
11016;SDS011;54687;50.800;6.772;2023-05-16T06:21:28;10.70;;;4.00;;
11016;SDS011;54687;50.800;6.772;2023-05-16T06:23:55;9.32;;;3.47;;
11016;SDS011;54687;50.800;6.772;2023-05-16T06:26:21;13.88;;;3.22;;
11016;SDS011;54687;50.800;6.772;2023-05-16T06:28:50;10.77;;;3.85;;
11016;SDS011;54687;50.800;6.772;2023-05-16T06:31:16;12.23;;;3.92;;
11016;SDS011;54687;50.800;6.772;2023-05-16T06:33:43;13.90;;;3.72;;
11016;SDS011;54687;50.800;6.772;2023-05-16T06:36:09;13.57;;;4.32;;
11016;SDS011;54687;50.800;6.772;2023-05-16T06:38:38;9.30;;;3.70;;
11016;SDS011;54687;50.800;6.772;2023-05-16T06:41:06;10.43;;;3.53;;
11016;SDS011;54687;50.800;6.772;2023-05-16T06:43:34;11.43;;;3.33;;
11016;SDS011;54687;50.800;6.772;2023-05-16T06:46:01;10.68;;;3.67;;
11016;SDS011;54687;50.800;6.772;2023-05-16T06:48:28;15.00;;;4.40;;
11016;SDS011;54687;50.800;6.772;2023-05-16T06:50:55;15.85;;;4.65;;
11016;SDS011;54687;50.800;6.772;2023-05-16T06:53:21;9.55;;;3.90;;
11016;SDS011;54687;50.800;6.772;2023-05-16T06:55:49;14.43;;;5.00;;
11016;SDS011;54687;50.800;6.772;2023-05-16T06:58:16;13.95;;;4.50;;
11016;SDS011;54687;50.800;6.772;2023-05-16T07:00:42;10.90;;;4.60;;
11016;SDS011;54687;50.800;6.772;2023-05-16T07:03:09;9.50;;;3.90;;
11016;SDS011;54687;50.800;6.772;2023-05-16T07:05:36;11.55;;;4.50;;
11016;SDS011;54687;50.800;6.772;2023-05-16T07:08:03;13.20;;;4.85;;
11016;SDS011;54687;50.800;6.772;2023-05-16T07:10:30;11.35;;;4.28;;
11016;SDS011;54687;50.800;6.772;2023-05-16T07:13:00;11.95;;;4.53;;
11016;SDS011;54687;50.800;6.772;2023-05-16T07:15:31;13.10;;;4.70;;
11016;SDS011;54687;50.800;6.772;2023-05-16T07:17:57;14.38;;;4.22;;
11016;SDS011;54687;50.800;6.772;2023-05-16T07:20:25;12.10;;;4.60;;
11016;SDS011;54687;50.800;6.772;2023-05-16T07:22:51;9.05;;;4.43;;
11016;SDS011;54687;50.800;6.772;2023-05-16T07:25:19;9.85;;;4.20;;
11016;SDS011;54687;50.800;6.772;2023-05-16T07:27:45;11.02;;;4.30;;
11016;SDS011;54687;50.800;6.772;2023-05-16T07:30:13;7.43;;;4.28;;
11016;SDS011;54687;50.800;6.772;2023-05-16T07:32:40;11.43;;;4.80;;
11016;SDS011;54687;50.800;6.772;2023-05-16T07:35:08;10.75;;;4.35;;
11016;SDS011;54687;50.800;6.772;2023-05-16T07:37:35;4.75;;;3.53;;
11016;SDS011;54687;50.800;6.772;2023-05-16T07:40:02;10.40;;;3.42;;
11016;SDS011;54687;50.800;6.772;2023-05-16T07:42:29;7.93;;;3.33;;
11016;SDS011;54687;50.800;6.772;2023-05-16T07:44:56;7.68;;;3.15;;
11016;SDS011;54687;50.800;6.772;2023-05-16T07:47:24;9.25;;;3.53;;
11016;SDS011;54687;50.800;6.772;2023-05-16T07:49:52;7.95;;;3.13;;
11016;SDS011;54687;50.800;6.772;2023-05-16T07:52:21;8.52;;;2.85;;
11016;SDS011;54687;50.800;6.772;2023-05-16T07:54:50;8.20;;;3.63;;
11016;SDS011;54687;50.800;6.772;2023-05-16T07:57:17;8.82;;;3.20;;
11016;SDS011;54687;50.800;6.772;2023-05-16T07:59:45;8.30;;;3.10;;
11016;SDS011;54687;50.800;6.772;2023-05-16T08:02:11;9.70;;;3.80;;
11016;SDS011;54687;50.800;6.772;2023-05-16T08:04:40;9.32;;;3.45;;
11016;SDS011;54687;50.800;6.772;2023-05-16T08:07:07;8.40;;;3.10;;
11016;SDS011;54687;50.800;6.772;2023-05-16T08:09:39;9.80;;;3.53;;
11016;SDS011;54687;50.800;6.772;2023-05-16T08:12:07;9.02;;;2.80;;
11016;SDS011;54687;50.800;6.772;2023-05-16T08:14:34;8.15;;;3.45;;
11016;SDS011;54687;50.800;6.772;2023-05-16T08:17:01;11.57;;;3.03;;
11016;SDS011;54687;50.800;6.772;2023-05-16T08:19:28;9.63;;;3.00;;
11016;SDS011;54687;50.800;6.772;2023-05-16T08:21:59;7.53;;;2.78;;
11016;SDS011;54687;50.800;6.772;2023-05-16T08:24:25;12.15;;;2.90;;
11016;SDS011;54687;50.800;6.772;2023-05-16T08:26:52;6.32;;;2.85;;
11016;SDS011;54687;50.800;6.772;2023-05-16T08:29:18;8.35;;;2.90;;
11016;SDS011;54687;50.800;6.772;2023-05-16T08:31:45;6.90;;;2.95;;
11016;SDS011;54687;50.800;6.772;2023-05-16T08:34:13;7.25;;;3.03;;
11016;SDS011;54687;50.800;6.772;2023-05-16T08:36:40;9.40;;;3.10;;
11016;SDS011;54687;50.800;6.772;2023-05-16T08:39:08;9.18;;;3.60;;
11016;SDS011;54687;50.800;6.772;2023-05-16T08:41:35;6.88;;;2.80;;
11016;SDS011;54687;50.800;6.772;2023-05-16T08:44:02;10.23;;;3.35;;
11016;SDS011;54687;50.800;6.772;2023-05-16T08:46:29;8.65;;;3.15;;
11016;SDS011;54687;50.800;6.772;2023-05-16T08:48:59;7.78;;;2.70;;
11016;SDS011;54687;50.800;6.772;2023-05-16T08:51:31;9.02;;;2.63;;
11016;SDS011;54687;50.800;6.772;2023-05-16T08:54:01;5.88;;;2.95;;
11016;SDS011;54687;50.800;6.772;2023-05-16T08:56:31;7.82;;;2.75;;
11016;SDS011;54687;50.800;6.772;2023-05-16T08:59:01;6.38;;;2.83;;
11016;SDS011;54687;50.800;6.772;2023-05-16T09:01:28;8.15;;;3.30;;
11016;SDS011;54687;50.800;6.772;2023-05-16T09:03:56;5.10;;;2.83;;
11016;SDS011;54687;50.800;6.772;2023-05-16T09:06:23;5.50;;;2.35;;
11016;SDS011;54687;50.800;6.772;2023-05-16T09:08:51;6.93;;;2.75;;
11016;SDS011;54687;50.800;6.772;2023-05-16T09:11:18;6.00;;;2.78;;
11016;SDS011;54687;50.800;6.772;2023-05-16T09:13:47;7.85;;;2.70;;
11016;SDS011;54687;50.800;6.772;2023-05-16T09:16:14;5.88;;;3.25;;
11016;SDS011;54687;50.800;6.772;2023-05-16T09:18:42;6.45;;;3.10;;
11016;SDS011;54687;50.800;6.772;2023-05-16T09:21:11;6.38;;;2.13;;
11016;SDS011;54687;50.800;6.772;2023-05-16T09:23:41;6.65;;;2.70;;
11016;SDS011;54687;50.800;6.772;2023-05-16T09:26:09;5.72;;;2.60;;
11016;SDS011;54687;50.800;6.772;2023-05-16T09:28:37;6.95;;;3.00;;
11016;SDS011;54687;50.800;6.772;2023-05-16T09:31:06;9.80;;;4.07;;
11016;SDS011;54687;50.800;6.772;2023-05-16T09:33:44;5.80;;;2.90;;
11016;SDS011;54687;50.800;6.772;2023-05-16T09:36:12;8.43;;;2.67;;
11016;SDS011;54687;50.800;6.772;2023-05-16T09:38:39;7.78;;;2.92;;
11016;SDS011;54687;50.800;6.772;2023-05-16T09:41:06;6.68;;;2.92;;
11016;SDS011;54687;50.800;6.772;2023-05-16T09:43:36;6.38;;;3.00;;
11016;SDS011;54687;50.800;6.772;2023-05-16T09:46:04;8.95;;;3.20;;
11016;SDS011;54687;50.800;6.772;2023-05-16T09:48:32;8.27;;;2.58;;
11016;SDS011;54687;50.800;6.772;2023-05-16T09:50:58;10.60;;;2.60;;
11016;SDS011;54687;50.800;6.772;2023-05-16T09:53:28;5.03;;;2.13;;
11016;SDS011;54687;50.800;6.772;2023-05-16T09:56:00;7.22;;;2.45;;
11016;SDS011;54687;50.800;6.772;2023-05-16T09:58:28;6.30;;;2.30;;
11016;SDS011;54687;50.800;6.772;2023-05-16T10:00:57;8.23;;;3.00;;
11016;SDS011;54687;50.800;6.772;2023-05-16T10:03:24;8.07;;;2.83;;
11016;SDS011;54687;50.800;6.772;2023-05-16T10:05:52;9.02;;;3.60;;
11016;SDS011;54687;50.800;6.772;2023-05-16T10:08:20;3.15;;;1.92;;
11016;SDS011;54687;50.800;6.772;2023-05-16T10:10:49;6.65;;;3.28;;
11016;SDS011;54687;50.800;6.772;2023-05-16T10:13:20;4.25;;;2.67;;
11016;SDS011;54687;50.800;6.772;2023-05-16T10:15:48;6.32;;;2.83;;
11016;SDS011;54687;50.800;6.772;2023-05-16T10:18:16;7.93;;;2.95;;
11016;SDS011;54687;50.800;6.772;2023-05-16T10:20:46;10.05;;;3.13;;
11016;SDS011;54687;50.800;6.772;2023-05-16T10:23:17;6.05;;;2.47;;
11016;SDS011;54687;50.800;6.772;2023-05-16T10:25:46;6.47;;;2.60;;
11016;SDS011;54687;50.800;6.772;2023-05-16T10:28:15;7.03;;;2.67;;
11016;SDS011;54687;50.800;6.772;2023-05-16T10:30:42;5.03;;;2.80;;
11016;SDS011;54687;50.800;6.772;2023-05-16T10:33:10;5.95;;;2.78;;
11016;SDS011;54687;50.800;6.772;2023-05-16T10:35:37;7.93;;;3.72;;
11016;SDS011;54687;50.800;6.772;2023-05-16T10:38:05;7.50;;;3.33;;
11016;SDS011;54687;50.800;6.772;2023-05-16T10:40:34;6.07;;;2.90;;
11016;SDS011;54687;50.800;6.772;2023-05-16T10:43:04;7.75;;;3.20;;
11016;SDS011;54687;50.800;6.772;2023-05-16T10:45:31;5.25;;;2.40;;
11016;SDS011;54687;50.800;6.772;2023-05-16T10:47:58;4.88;;;2.63;;
11016;SDS011;54687;50.800;6.772;2023-05-16T10:50:30;10.00;;;6.63;;
11016;SDS011;54687;50.800;6.772;2023-05-16T10:53:09;7.22;;;4.22;;
11016;SDS011;54687;50.800;6.772;2023-05-16T10:56:08;9.27;;;3.38;;
11016;SDS011;54687;50.800;6.772;2023-05-16T10:58:43;5.70;;;2.83;;
11016;SDS011;54687;50.800;6.772;2023-05-16T11:01:16;6.95;;;3.42;;
11016;SDS011;54687;50.800;6.772;2023-05-16T11:04:05;5.82;;;2.53;;
11016;SDS011;54687;50.800;6.772;2023-05-16T11:06:33;5.68;;;3.00;;
11016;SDS011;54687;50.800;6.772;2023-05-16T11:09:16;7.15;;;3.10;;
11016;SDS011;54687;50.800;6.772;2023-05-16T11:11:53;6.68;;;3.22;;
11016;SDS011;54687;50.800;6.772;2023-05-16T11:14:27;6.15;;;3.10;;
11016;SDS011;54687;50.800;6.772;2023-05-16T11:17:05;11.05;;;3.25;;
11016;SDS011;54687;50.800;6.772;2023-05-16T11:19:34;8.02;;;3.25;;
11016;SDS011;54687;50.800;6.772;2023-05-16T11:22:06;7.00;;;2.63;;
11016;SDS011;54687;50.800;6.772;2023-05-16T11:24:47;7.03;;;3.15;;
11016;SDS011;54687;50.800;6.772;2023-05-16T11:27:21;5.57;;;2.42;;
11016;SDS011;54687;50.800;6.772;2023-05-16T11:29:49;6.15;;;3.13;;
11016;SDS011;54687;50.800;6.772;2023-05-16T11:32:20;10.05;;;5.13;;
11016;SDS011;54687;50.800;6.772;2023-05-16T11:34:48;11.95;;;7.82;;
11016;SDS011;54687;50.800;6.772;2023-05-16T11:37:17;4.45;;;2.65;;
11016;SDS011;54687;50.800;6.772;2023-05-16T11:39:45;7.75;;;2.63;;
11016;SDS011;54687;50.800;6.772;2023-05-16T11:42:12;3.95;;;2.47;;
11016;SDS011;54687;50.800;6.772;2023-05-16T11:44:40;7.25;;;2.83;;
11016;SDS011;54687;50.800;6.772;2023-05-16T11:47:07;7.72;;;3.72;;
11016;SDS011;54687;50.800;6.772;2023-05-16T11:49:33;8.93;;;6.20;;
11016;SDS011;54687;50.800;6.772;2023-05-16T11:52:00;6.93;;;3.03;;
11016;SDS011;54687;50.800;6.772;2023-05-16T11:54:27;6.28;;;2.92;;
11016;SDS011;54687;50.800;6.772;2023-05-16T11:56:54;5.18;;;2.60;;
11016;SDS011;54687;50.800;6.772;2023-05-16T11:59:21;5.90;;;2.20;;
11016;SDS011;54687;50.800;6.772;2023-05-16T12:01:49;4.80;;;2.30;;
11016;SDS011;54687;50.800;6.772;2023-05-16T12:04:15;4.65;;;2.58;;
11016;SDS011;54687;50.800;6.772;2023-05-16T12:06:56;6.72;;;2.25;;
11016;SDS011;54687;50.800;6.772;2023-05-16T12:09:24;7.10;;;2.92;;
11016;SDS011;54687;50.800;6.772;2023-05-16T12:11:51;7.88;;;3.15;;
11016;SDS011;54687;50.800;6.772;2023-05-16T12:14:18;6.65;;;3.30;;
11016;SDS011;54687;50.800;6.772;2023-05-16T12:16:47;3.47;;;2.35;;
11016;SDS011;54687;50.800;6.772;2023-05-16T12:19:19;8.75;;;3.08;;
11016;SDS011;54687;50.800;6.772;2023-05-16T12:21:46;6.75;;;2.97;;
11016;SDS011;54687;50.800;6.772;2023-05-16T12:24:13;5.05;;;2.80;;
11016;SDS011;54687;50.800;6.772;2023-05-16T12:26:40;5.05;;;2.67;;
11016;SDS011;54687;50.800;6.772;2023-05-16T12:29:09;5.80;;;4.00;;
11016;SDS011;54687;50.800;6.772;2023-05-16T12:31:36;5.43;;;2.38;;
11016;SDS011;54687;50.800;6.772;2023-05-16T12:34:05;6.60;;;2.50;;
11016;SDS011;54687;50.800;6.772;2023-05-16T12:36:40;5.45;;;4.47;;
11016;SDS011;54687;50.800;6.772;2023-05-16T12:39:10;7.07;;;3.80;;
11016;SDS011;54687;50.800;6.772;2023-05-16T12:41:39;27.85;;;25.20;;
11016;SDS011;54687;50.800;6.772;2023-05-16T12:44:10;4.88;;;3.22;;
11016;SDS011;54687;50.800;6.772;2023-05-16T12:46:45;6.38;;;2.70;;
11016;SDS011;54687;50.800;6.772;2023-05-16T12:49:14;6.95;;;5.80;;
11016;SDS011;54687;50.800;6.772;2023-05-16T12:51:49;6.68;;;2.85;;
11016;SDS011;54687;50.800;6.772;2023-05-16T12:54:17;6.38;;;3.00;;
11016;SDS011;54687;50.800;6.772;2023-05-16T12:56:44;7.03;;;3.00;;
11016;SDS011;54687;50.800;6.772;2023-05-16T12:59:11;5.70;;;2.25;;
11016;SDS011;54687;50.800;6.772;2023-05-16T13:01:37;5.10;;;2.60;;
11016;SDS011;54687;50.800;6.772;2023-05-16T13:04:06;5.50;;;2.97;;
11016;SDS011;54687;50.800;6.772;2023-05-16T13:06:35;16.63;;;14.00;;
11016;SDS011;54687;50.800;6.772;2023-05-16T13:09:02;8.00;;;3.50;;
11016;SDS011;54687;50.800;6.772;2023-05-16T13:11:29;6.32;;;2.72;;
11016;SDS011;54687;50.800;6.772;2023-05-16T13:13:56;4.60;;;2.70;;
11016;SDS011;54687;50.800;6.772;2023-05-16T13:16:22;5.80;;;2.92;;
11016;SDS011;54687;50.800;6.772;2023-05-16T13:18:49;6.20;;;2.65;;
11016;SDS011;54687;50.800;6.772;2023-05-16T13:21:16;5.50;;;1.90;;
11016;SDS011;54687;50.800;6.772;2023-05-16T13:23:44;4.47;;;2.50;;
11016;SDS011;54687;50.800;6.772;2023-05-16T13:26:10;3.95;;;2.42;;
11016;SDS011;54687;50.800;6.772;2023-05-16T13:28:39;6.30;;;3.17;;
11016;SDS011;54687;50.800;6.772;2023-05-16T13:31:06;5.20;;;2.47;;
11016;SDS011;54687;50.800;6.772;2023-05-16T13:33:34;3.38;;;1.75;;
11016;SDS011;54687;50.800;6.772;2023-05-16T13:36:01;3.92;;;1.92;;
11016;SDS011;54687;50.800;6.772;2023-05-16T13:38:30;5.07;;;1.83;;
11016;SDS011;54687;50.800;6.772;2023-05-16T13:40:58;4.63;;;3.78;;
11016;SDS011;54687;50.800;6.772;2023-05-16T13:43:25;4.93;;;2.50;;
11016;SDS011;54687;50.800;6.772;2023-05-16T13:45:51;4.25;;;1.98;;
11016;SDS011;54687;50.800;6.772;2023-05-16T13:48:18;4.50;;;2.78;;
11016;SDS011;54687;50.800;6.772;2023-05-16T13:50:46;3.10;;;2.08;;
11016;SDS011;54687;50.800;6.772;2023-05-16T13:53:14;4.18;;;2.40;;
11016;SDS011;54687;50.800;6.772;2023-05-16T13:55:41;3.00;;;2.35;;
11016;SDS011;54687;50.800;6.772;2023-05-16T13:58:10;4.43;;;2.25;;
11016;SDS011;54687;50.800;6.772;2023-05-16T14:00:37;2.67;;;1.77;;
11016;SDS011;54687;50.800;6.772;2023-05-16T14:03:04;4.43;;;2.38;;
11016;SDS011;54687;50.800;6.772;2023-05-16T14:05:30;4.95;;;2.42;;
11016;SDS011;54687;50.800;6.772;2023-05-16T14:07:57;7.38;;;3.08;;
11016;SDS011;54687;50.800;6.772;2023-05-16T14:10:24;3.40;;;2.28;;
11016;SDS011;54687;50.800;6.772;2023-05-16T14:12:51;4.47;;;2.55;;
11016;SDS011;54687;50.800;6.772;2023-05-16T14:15:19;6.10;;;2.33;;
11016;SDS011;54687;50.800;6.772;2023-05-16T14:17:46;4.82;;;2.50;;
11016;SDS011;54687;50.800;6.772;2023-05-16T14:20:12;4.32;;;2.20;;
11016;SDS011;54687;50.800;6.772;2023-05-16T14:22:40;4.75;;;2.70;;
11016;SDS011;54687;50.800;6.772;2023-05-16T14:25:06;4.10;;;2.25;;
11016;SDS011;54687;50.800;6.772;2023-05-16T14:27:33;4.97;;;2.50;;
11016;SDS011;54687;50.800;6.772;2023-05-16T14:30:00;4.05;;;2.47;;
11016;SDS011;54687;50.800;6.772;2023-05-16T14:32:28;5.47;;;2.55;;
11016;SDS011;54687;50.800;6.772;2023-05-16T14:34:54;7.88;;;2.42;;
11016;SDS011;54687;50.800;6.772;2023-05-16T14:37:21;3.53;;;2.10;;
11016;SDS011;54687;50.800;6.772;2023-05-16T14:39:47;4.53;;;2.40;;
11016;SDS011;54687;50.800;6.772;2023-05-16T14:42:15;5.18;;;3.17;;
11016;SDS011;54687;50.800;6.772;2023-05-16T14:44:43;6.53;;;2.03;;
11016;SDS011;54687;50.800;6.772;2023-05-16T14:47:09;4.60;;;2.00;;
11016;SDS011;54687;50.800;6.772;2023-05-16T14:49:39;6.35;;;1.50;;
11016;SDS011;54687;50.800;6.772;2023-05-16T14:52:06;4.07;;;2.17;;
11016;SDS011;54687;50.800;6.772;2023-05-16T14:54:32;4.50;;;2.03;;